• Join FlightAware (Why Join?)
  • Login
  • US Flag 
01:01PM EDT


 

Airport Tracker/Info


-or-


 

Live Flight TrackerFlight Track Log ✈ SWA1707 ✈ 12-Oct-2013 ✈ KFLL - KMDW

Flight Track Log - Related Links

Times and Time Zones

All times are in EDT time to prevent confusion due to time zone crossing. See the SWA1707 flight status page for this flight to view local times or setup timezone preferences in your user account.

Time Position Orientation Groundspeed Altitude Reporting Facility
EDT Latitude Longitude Course Direction KTS MPH feet Rate Location/Type
08:51AM 26.0750 -80.1344 89° East 164 189 900  Level Miami Center
08:51AM 26.0756 -80.1067 89° East 169 194 1,800 1,620 Climbing Miami Center
08:52AM 26.0833 -80.0397 83° East 218 251 3,400 1,620 Climbing Miami Center
08:53AM 26.1275 -80.0269 15° North 250 288 5,000 2,100 Climbing Miami Center
08:54AM 26.1719 -80.0931 307° West 278 320 7,500 2,340 Climbing Miami Center
08:54AM 26.1842 -80.1072 314° West 280 322 7,600 2,940 Climbing Miami Center
08:55AM 26.2225 -80.1708 304° West 293 337 10,500 2,880 Climbing Miami Center
08:55AM 26.2328 -80.1758 336° Northwest 298 343 10,500 2,220 Level Miami Center
08:56AM 26.2494 -80.2711 281° West 366 421 12,800 2,160 Climbing Miami Center
08:56AM 26.2556 -80.2783 313° West 363 418 12,700 2,760 Descending Miami Center
08:57AM 26.2675 -80.3875 277° West 379 436 15,700 1,920 Climbing Miami Center
08:58AM 26.2881 -80.4878 283° West 385 443 16,600 1,920 Climbing Miami Center
08:59AM 26.3800 -80.5647 323° Northwest 353 406 19,600 2,700 Climbing Miami Center
09:00AM 26.4600 -80.6253 326° Northwest 380 437 22,100 2,400 Climbing Miami Center
09:01AM 26.5583 -80.7003 326° Northwest 392 451 24,500 1,920 Climbing Miami Center
09:02AM 26.6547 -80.7686 328° Northwest 405 466 26,000 1,620 Climbing Miami Center
09:03AM 26.7511 -80.8253 332° Northwest 421 484 27,800 1,800 Climbing Miami Center
09:04AM 26.8578 -80.8964 329° Northwest 433 498 29,600 2,220 Climbing Miami Center
09:05AM 26.9606 -80.9606 331° Northwest 433 498 32,300 2,100 Climbing Miami Center
09:06AM 27.0611 -81.0225 331° Northwest 428 493 33,900 1,740 Climbing Miami Center
09:07AM 27.1575 -81.0819 331° Northwest 412 474 35,800 1,680 Climbing Miami Center
09:08AM 27.2558 -81.1439 331° Northwest 402 463 37,300 1,080 Climbing Miami Center
09:10AM 27.3542 -81.2058 331° Northwest 396 456 38,200 720 Climbing Miami Center
09:11AM 27.4708 -81.2783 331° Northwest 396 456 39,000 720 Climbing Miami Center
09:12AM 27.5650 -81.3403 330° Northwest 396 456 39,700 480 Climbing Miami Center
09:13AM 27.6653 -81.4028 331° Northwest 396 456 40,000 120 Climbing Miami Center
09:14AM 27.7739 -81.4706 331° Northwest 396 456 40,000  Level Miami Center
09:15AM 27.8617 -81.5258 331° Northwest 396 456 40,000  Level Miami Center
09:16AM 27.9578 -81.5883 330° Northwest 396 456 40,000  Level Miami Center
09:17AM 28.0639 -81.6564 330° Northwest 396 456 40,000  Level Miami Center
09:18AM 28.2264 -81.7572 331° Northwest 393 452 40,000  Level Jacksonville Center
09:19AM 28.3208 -81.8175 331° Northwest 393 452 40,000  Level Jacksonville Center
09:20AM 28.4172 -81.8778 331° Northwest 393 452 40,000  Level Jacksonville Center
09:21AM 28.5094 -81.9286 334° Northwest 400 460 40,000  Level Jacksonville Center
09:22AM 28.6161 -81.9631 344° North 393 452 40,000  Level Jacksonville Center
09:23AM 28.7186 -81.9953 345° North 388 447 40,000  Level Jacksonville Center
09:24AM 28.8231 -82.0300 344° North 388 447 40,000  Level Jacksonville Center
09:25AM 28.9278 -82.0669 343° North 388 447 40,000  Level Jacksonville Center
09:26AM 29.0408 -82.1064 343° North 382 440 40,000  Level Jacksonville Center
09:27AM 29.1475 -82.1436 343° North 387 445 40,000  Level Jacksonville Center
09:28AM 29.2519 -82.1786 344° North 387 445 40,000  Level Jacksonville Center
09:29AM 29.3567 -82.2136 344° North 387 445 40,000 -300 Level Jacksonville Center
09:30AM 29.4611 -82.2508 343° North 387 445 39,500 -540 Descending Jacksonville Center
09:31AM 29.5656 -82.2886 343° North 387 445 39,000 -300 Descending Jacksonville Center
09:32AM 29.6681 -82.3236 343° North 387 445 39,000  Level Jacksonville Center
09:33AM 29.7706 -82.3567 344° North 387 445 39,000  Level Jacksonville Center
09:34AM 29.8750 -82.3944 343° North 387 445 39,000  Level Jacksonville Center
09:35AM 29.9775 -82.4297 343° North 387 445 39,000  Level Jacksonville Center
09:36AM 30.0694 -82.4653 341° North 387 445 39,000  Level Jacksonville Center
09:37AM 30.1742 -82.5033 343° North 387 445 39,000  Level Jacksonville Center
09:38AM 30.2764 -82.5389 343° North 387 445 39,000  Level Jacksonville Center
09:39AM 30.3789 -82.5772 342° North 381 438 39,000  Level Jacksonville Center
09:40AM 30.4814 -82.6106 344° North 381 438 39,000  Level Jacksonville Center
09:41AM 30.5858 -82.6489 342° North 381 438 39,000  Level Jacksonville Center
09:42AM 30.6964 -82.6897 342° North 381 438 39,000  Level Jacksonville Center
09:43AM 30.7989 -82.7281 342° North 381 438 39,000  Level Jacksonville Center
09:44AM 30.9033 -82.7642 343° North 386 444 39,000  Level Jacksonville Center
09:45AM 31.0078 -82.8028 342° North 386 444 39,000  Level Jacksonville Center
09:46AM 31.0892 -82.8294 344° North 386 444 39,000  Level Jacksonville Center
09:47AM 31.2019 -82.8683 344° North 380 437 39,000  Level Jacksonville Center
09:48AM 31.3064 -82.9072 342° North 387 445 39,000  Level Jacksonville Center
09:49AM 31.4211 -82.9461 344° North 387 445 39,000  Level Jacksonville Center
09:51AM 31.6089 -83.0147 343° North 387 445 39,000  Level Atlanta Center
09:52AM 31.7133 -83.0550 342° North 387 445 39,000  Level Atlanta Center
09:53AM 31.8181 -83.0906 344° North 387 445 39,000  Level Atlanta Center
09:54AM 31.9206 -83.1286 343° North 387 445 39,000  Level Atlanta Center
09:55AM 32.0253 -83.1667 343° North 387 445 39,000  Level Atlanta Center
09:56AM 32.1300 -83.2050 343° North 387 445 39,000  Level Atlanta Center
09:57AM 32.2325 -83.2433 342° North 387 445 39,000  Level Atlanta Center
09:58AM 32.3369 -83.2817 343° North 387 445 39,000  Level Atlanta Center
09:59AM 32.4375 -83.3203 342° North 382 440 39,000  Level Atlanta Center
10:00AM 32.5400 -83.3589 342° North 382 440 39,000  Level Atlanta Center
10:01AM 32.6425 -83.3975 342° North 382 440 39,000  Level Atlanta Center
10:02AM 32.7450 -83.4339 343° North 382 440 39,000  Level Atlanta Center
10:03AM 32.8494 -83.4750 342° North 382 440 39,000  Level Atlanta Center
10:04AM 32.9497 -83.5117 343° North 382 440 39,000  Level Atlanta Center
10:05AM 33.0522 -83.5506 342° North 382 440 39,000  Level Atlanta Center
10:06AM 33.1483 -83.5922 340° North 372 428 39,000  Level Atlanta Center
10:07AM 33.2508 -83.6264 344° North 377 434 39,000  Level Atlanta Center
10:08AM 33.3533 -83.6658 342° North 382 440 39,000  Level Atlanta Center
10:09AM 33.4536 -83.7028 343° North 382 440 39,000  Level Atlanta Center
10:10AM 33.5558 -83.7447 341° North 382 440 39,000  Level Atlanta Center
10:11AM 33.6583 -83.7792 344° North 382 440 39,000  Level Atlanta Center
10:12AM 33.7628 -83.8189 342° North 382 440 39,000  Level Atlanta Center
10:13AM 33.8672 -83.8586 342° North 382 440 39,000  Level Atlanta Center
10:14AM 33.9694 -83.8961 343° North 387 445 39,000  Level Atlanta Center
10:15AM 34.0717 -83.9361 342° North 387 445 39,000  Level Atlanta Center
10:16AM 34.1761 -83.9761 342° North 387 445 39,000  Level Atlanta Center
10:17AM 34.2681 -84.0086 344° North 387 445 39,000  Level Atlanta Center
10:18AM 34.3703 -84.0514 341° North 381 438 39,000  Level Atlanta Center
10:19AM 34.4725 -84.0917 342° North 386 444 39,000  Level Atlanta Center
10:20AM 34.5747 -84.1294 343° North 381 438 39,000  Level Atlanta Center
10:21AM 34.6728 -84.1725 340° North 381 438 39,000  Level Atlanta Center
10:22AM 34.7792 -84.2108 344° North 381 438 39,000  Level Atlanta Center
10:23AM 34.8814 -84.2514 342° North 391 450 39,000  Level Atlanta Center
10:24AM 34.9794 -84.2947 340° North 385 443 39,000  Level Atlanta Center
10:25AM 35.0836 -84.3331 343° North 380 437 39,000  Level Atlanta Center
10:26AM 35.1858 -84.3767 341° North 380 437 39,000  Level Atlanta Center
10:27AM 35.2922 -84.4181 342° North 385 443 39,000  Level Atlanta Center
10:28AM 35.3942 -84.4567 343° North 385 443 39,100 480 Climbing Atlanta Center
10:29AM 35.4983 -84.4978 342° North 385 443 40,000 420 Climbing Atlanta Center
10:30AM 35.6047 -84.5419 341° North 385 443 40,000  Level Atlanta Center
10:31AM 35.7086 -84.5808 343° North 385 443 40,000  Level Atlanta Center
10:32AM 35.8169 -84.6253 342° North 385 443 40,000  Level Atlanta Center
10:33AM 35.9253 -84.6669 343° North 395 455 40,000  Level Atlanta Center
10:36AM 36.2003 -84.7697 343° North 410 472 40,000  Level Indianapolis Center
10:37AM 36.3122 -84.8008 347° North 411 473 40,000  Level Indianapolis Center
10:38AM 36.4231 -84.8328 347° North 410 472 40,000  Level Indianapolis Center
10:39AM 36.5331 -84.8628 348° North 407 468 40,000  Level Indianapolis Center
10:40AM 36.6672 -84.9006 347° North 410 472 40,000  Level Indianapolis Center
10:41AM 36.7786 -84.9319 347° North 411 473 40,000  Level Indianapolis Center
10:42AM 36.8911 -84.9650 347° North 413 475 40,000  Level Indianapolis Center
10:43AM 37.0042 -84.9969 347° North 415 478 40,000  Level Indianapolis Center
10:44AM 37.1086 -85.0275 347° North 410 472 40,000  Level Indianapolis Center
10:45AM 37.2417 -85.0661 347° North 416 479 40,000  Level Indianapolis Center
10:46AM 37.3561 -85.0989 347° North 419 482 40,000  Level Indianapolis Center
10:47AM 37.4703 -85.1317 347° North 420 483 40,000  Level Indianapolis Center
10:48AM 37.5844 -85.1658 347° North 420 483 40,000  Level Indianapolis Center
10:49AM 37.7008 -85.1994 347° North 425 489 40,000 -240 Level Indianapolis Center
10:50AM 37.8164 -85.2331 347° North 427 491 39,600 -720 Descending Indianapolis Center
10:51AM 37.9275 -85.2639 348° North 426 490 38,600 -1,020 Descending Indianapolis Center
10:52AM 38.0408 -85.2972 347° North 419 482 37,600 -1,080 Descending Indianapolis Center
10:53AM 38.1789 -85.3381 347° North 423 487 36,500 -1,020 Descending Indianapolis Center
10:54AM 38.2928 -85.3717 347° North 422 486 35,600 -780 Descending Indianapolis Center
10:55AM 38.4108 -85.4069 347° North 431 496 35,000 -300 Descending Indianapolis Center
10:56AM 38.5239 -85.4414 347° North 421 484 35,000 -300 Level Indianapolis Center
10:57AM 38.6403 -85.4767 347° North 422 486 34,400 -780 Descending Indianapolis Center
10:58AM 38.7578 -85.5117 347° North 432 497 33,500 -900 Descending Indianapolis Center
10:59AM 38.8772 -85.5478 347° North 440 506 32,600 -1,200 Descending Indianapolis Center
11:00AM 39.0000 -85.5842 347° North 451 519 31,100 -1,440 Descending Indianapolis Center
11:01AM 39.1250 -85.6225 347° North 460 529 29,700 -1,560 Descending Indianapolis Center
11:02AM 39.2733 -85.6672 347° North 460 529 28,000 -840 Descending Indianapolis Center
11:03AM 39.3919 -85.7028 347° North 449 517 28,000 -300 Level Indianapolis Center
11:04AM 39.5094 -85.7400 346° North 441 507 27,500 -780 Descending Indianapolis Center
11:05AM 39.6286 -85.7769 347° North 443 510 26,500 -1,020 Descending Indianapolis Center
11:06AM 39.7458 -85.8133 347° North 441 507 25,500 -1,020 Descending Indianapolis Center
11:07AM 39.8614 -85.8486 347° North 434 499 24,500 -780 Descending Indianapolis Center
11:08AM 39.9947 -85.8900 347° North 418 481 24,000 -300 Descending Indianapolis Center
11:09AM 40.1053 -85.9250 346° North 414 476 24,000  Level Indianapolis Center
11:10AM 40.2144 -85.9719 342° North 418 481 24,000  Level Indianapolis Center
11:11AM 40.3197 -86.0275 338° Northwest 415 478 24,000  Level Chicago Center
11:12AM 40.4258 -86.0867 337° Northwest 417 480 24,000 -840 Level Chicago Center
11:13AM 40.5311 -86.1428 338° Northwest 412 474 22,300 -2,040 Descending Chicago Center
11:14AM 40.6389 -86.2044 337° Northwest 402 463 19,900 -2,160 Descending Chicago Center
11:15AM 40.7381 -86.2606 337° Northwest 388 447 17,900 -1,980 Descending Chicago Center
11:17AM 40.8347 -86.3136 337° Northwest 378 435 15,900 -2,280 Descending Chicago Center
11:18AM 40.9483 -86.3767 337° Northwest 369 425 13,300 -2,400 Descending Chicago Center
11:19AM 41.0397 -86.4300 336° Northwest 361 415 11,100 -1,140 Descending Chicago Center
11:20AM 41.1000 -86.5194 312° West 328 377 11,000 -480 Descending Chicago Center
11:21AM 41.1597 -86.6103 311° West 327 376 10,200 -540 Descending Chicago Center
11:22AM 41.2192 -86.7008 311° West 325 374 10,000 -120 Descending Chicago Center
11:23AM 41.2803 -86.7947 311° West 318 366 10,000 -60 Level Chicago Center
11:24AM 41.3325 -86.8769 310° West 299 344 9,900 -720 Descending Chicago Center
11:25AM 41.3844 -86.9564 311° West 288 331 8,600 -1,260 Descending Chicago Center
11:26AM 41.4344 -87.0344 311° West 281 323 7,300 -840 Descending Chicago Center
11:27AM 41.4847 -87.1325 304° West 275 316 7,000 -240 Descending Chicago Center
11:28AM 41.5144 -87.2183 295° West 262 302 6,900 -540 Descending Chicago Center
11:29AM 41.5511 -87.3031 300° West 263 303 5,900 -1,020 Descending Chicago Center
11:30AM 41.5850 -87.3914 297° West 267 307 4,900 -960 Descending Chicago Center
11:31AM 41.6206 -87.4767 299° West 267 307 4,000 -480 Descending Chicago Center
11:32AM 41.6525 -87.5575 298° West 260 299 4,000 -240 Level Chicago Center
11:33AM 41.7042 -87.6158 320° Northwest 228 262 3,600 -780 Descending Chicago Center
11:34AM 41.7561 -87.6431 339° North 211 243 2,500 -900 Descending Chicago Center
11:36AM 41.8167 -87.7167 318° Northwest 145 167 1,200 -480 Descending Chicago TRACON
11:37AM 41.7706 -87.7344 196° South 162 186 1,100 -120 Descending Chicago Center
11:39AM 41.7833 -87.7500 236° Southwest  Level FlightAware Approximate